• Join FlightAware (Why Join?)
  • Login
  • US Flag 
12:33PM EDT


 

Airport Tracker/Info


-or-


 

Live Flight TrackerFlight Track Log ✈ UPS605 ✈ 04-May-2012 ✈ KORD - KSDF

Flight Track Log - Related Links

Times and Time Zones

All times are in EDT time to prevent confusion due to time zone crossing. See the UPS605 flight status page for this flight to view local times or setup timezone preferences in your user account.

Time Position Orientation Groundspeed Altitude Reporting Facility
EDT Latitude Longitude Course Direction KTS MPH feet Rate Location/Type
12:01AM 42.0000 -87.9333 166° South 173 199 2,500  Level Chicago TRACON
12:06AM 41.6817 -87.8236 166° South 296 341 13,200 2,220 Climbing Chicago Center
12:07AM 41.5978 -87.7950 168° South 313 360 15,900 2,040 Climbing Chicago Center
12:08AM 41.4975 -87.7669 167° South 339 390 17,300 1,380 Climbing Chicago Center
12:09AM 41.3822 -87.7311 169° South 383 441 18,700 1,800 Climbing Chicago Center
12:10AM 41.2503 -87.6956 169° South 418 481 20,900 2,280 Climbing Chicago Center
12:11AM 41.1269 -87.6628 170° South 446 513 23,300 1,920 Climbing Chicago Center
12:13AM 40.8225 -87.5886 168° South 479 551 27,600 1,560 Climbing Indianapolis Center
12:14AM 40.6944 -87.5536 168° South 479 551 28,800 660 Climbing Indianapolis Center
12:15AM 40.5664 -87.5189 168° South 479 551 29,000 60 Climbing Indianapolis Center
12:16AM 40.4319 -87.4811 169° South 484 557 29,000  Level Indianapolis Center
12:17AM 40.2997 -87.4464 167° South 484 557 29,000  Level Indianapolis Center
12:18AM 40.1739 -87.4097 169° South 484 557 29,000  Level Indianapolis Center
12:19AM 40.0436 -87.3753 168° South 484 557 29,000  Level Indianapolis Center
12:20AM 39.9011 -87.3350 170° South 484 557 29,000  Level Indianapolis Center
12:21AM 39.7706 -87.3064 190° South 484 557 29,000  Level Indianapolis Center
12:22AM 39.6403 -87.3372 192° South 479 551 29,000  Level Indianapolis Center
12:23AM 39.5142 -87.3708 191° South 484 557 29,000  Level Indianapolis Center
12:24AM 39.3836 -87.4042 190° South 479 551 29,000  Level Indianapolis Center
12:25AM 39.2533 -87.4347 191° South 479 551 29,000  Level Indianapolis Center
12:26AM 39.1272 -87.4653 192° South 470 541 29,000  Level Indianapolis Center
12:27AM 39.0031 -87.4986 192° South 463 533 29,000  Level Indianapolis Center
12:28AM 38.8769 -87.5317 191° South 463 533 29,000  Level Indianapolis Center
12:29AM 38.7464 -87.5644 172° South 470 541 29,000  Level Indianapolis Center
12:30AM 38.6136 -87.5414 169° South 475 547 29,000  Level Indianapolis Center
12:31AM 38.4814 -87.5075 171° South 481 554 29,000  Level Indianapolis Center
12:32AM 38.3486 -87.4817 170° South 481 554 29,000 -300 Level Indianapolis Center
12:33AM 38.2267 -87.4542 170° South 487 560 28,400 -900 Descending Indianapolis Center
12:34AM 38.0919 -87.4231 169° South 487 560 27,300 -1,140 Descending Indianapolis Center
12:35AM 37.9617 -87.3900 159° South 487 560 26,200 -1,140 Descending Indianapolis Center
12:36AM 37.8486 -87.3342 144° Southeast 458 527 25,100 -1,740 Descending Indianapolis Center
12:37AM 37.7475 -87.2397 127° Southeast 441 507 22,800 -1,920 Descending Indianapolis Center
12:38AM 37.6739 -87.1181 127° Southeast 441 507 21,300 -1,440 Descending Indianapolis Center
12:39AM 37.6064 -87.0044 125° Southeast 429 494 20,000 -1,560 Descending Indianapolis Center
12:40AM 37.5450 -86.8942 118° Southeast 409 471 18,200 -1,440 Descending Indianapolis Center
12:41AM 37.4942 -86.7717 107° East 385 443 17,200 -1,020 Descending Indianapolis Center
12:42AM 37.4661 -86.6553 92° East 354 407 16,200 -1,020 Descending Indianapolis Center
12:43AM 37.4628 -86.5400 80° East 338 389 15,200 -1,080 Descending Indianapolis Center
12:44AM 37.4781 -86.4306 76° East 323 372 14,100 -1,080 Descending Indianapolis Center
12:45AM 37.4967 -86.3350 76° East 314 361 13,200 -1,020 Descending FAA TRACON SMA TRACON (SMA)
12:46AM 37.5097 -86.2703 76° East 309 356 12,600 -900 Descending FAA TRACON SMA TRACON (SMA)
12:46AM 37.5244 -86.1975 76° East 311 358 12,000 -960 Descending FAA TRACON SMA TRACON (SMA)
12:47AM 37.5372 -86.1339 76° East 306 352 11,400 -780 Descending FAA TRACON SMA TRACON (SMA)
12:48AM 37.5517 -86.0625 105° East 300 345 11,000 -300 Descending FAA TRACON SMA TRACON (SMA)
12:48AM 37.5378 -85.9956 171° South 314 361 11,000  Level FAA TRACON SMA TRACON (SMA)
12:49AM 37.4875 -85.9850 204° Southwest 278 320 11,000  Level FAA TRACON SMA TRACON (SMA)
12:50AM 37.4475 -86.0075 220° Southwest 254 292 11,000  Level FAA TRACON SMA TRACON (SMA)
12:50AM 37.4106 -86.0461 229° Southwest 250 288 11,000  Level FAA TRACON SMA TRACON (SMA)
12:51AM 37.3800 -86.0900 229° Southwest 243 280 11,000  Level FAA TRACON SMA TRACON (SMA)
12:52AM 37.3528 -86.1294 232° Southwest 245 282 11,000  Level FAA TRACON SMA TRACON (SMA)
12:52AM 37.3233 -86.1767 281° West 247 284 11,000  Level FAA TRACON SMA TRACON (SMA)
12:53AM 37.3311 -86.2281 326° Northwest 270 311 11,000  Level FAA TRACON SMA TRACON (SMA)
12:54AM 37.3639 -86.2561 35° Northeast 245 282 11,000  Level FAA TRACON SMA TRACON (SMA)
12:54AM 37.4028 -86.2217 66° East 261 300 11,000  Level FAA TRACON SMA TRACON (SMA)
12:55AM 37.4244 -86.1592 72° East 280 322 11,000  Level FAA TRACON SMA TRACON (SMA)
12:56AM 37.4397 -86.1011 61° Northeast 285 328 11,000  Level FAA TRACON SMA TRACON (SMA)
12:56AM 37.4658 -86.0408 83° East 285 328 11,000  Level FAA TRACON SMA TRACON (SMA)
12:57AM 37.4736 -85.9647 147° Southeast 310 357 11,000  Level FAA TRACON SMA TRACON (SMA)
12:58AM 37.4347 -85.9333 212° Southwest 299 344 11,000  Level FAA TRACON SMA TRACON (SMA)
12:58AM 37.4011 -85.9597 276° West 247 284 11,000  Level FAA TRACON SMA TRACON (SMA)
12:59AM 37.4056 -86.0133 261° West 243 280 11,000  Level FAA TRACON SMA TRACON (SMA)
01:00AM 37.3992 -86.0644 208° Southwest 230 265 11,000  Level FAA TRACON SMA TRACON (SMA)
01:00AM 37.3703 -86.0839 230° Southwest 250 288 11,000  Level FAA TRACON SMA TRACON (SMA)
01:01AM 37.3339 -86.1386 243° Southwest 245 282 11,000  Level FAA TRACON SMA TRACON (SMA)
01:02AM 37.3156 -86.1847 277° West 241 277 11,000  Level FAA TRACON SMA TRACON (SMA)
01:02AM 37.3211 -86.2417 340° North 241 277 11,000  Level FAA TRACON SMA TRACON (SMA)
01:03AM 37.3614 -86.2597 North 247 284 11,000  Level FAA TRACON SMA TRACON (SMA)
01:04AM 37.4036 -86.2578 North 243 280 11,000  Level FAA TRACON SMA TRACON (SMA)
01:04AM 37.4508 -86.2536 North 246 283 11,000  Level FAA TRACON SMA TRACON (SMA)
01:05AM 37.5006 -86.2500 North 260 299 11,000  Level FAA TRACON SMA TRACON (SMA)
01:06AM 37.5478 -86.2469 North 276 318 11,000 -600 Level FAA TRACON SMA TRACON (SMA)
01:06AM 37.6006 -86.2436 North 274 315 10,200 -1,380 Descending FAA TRACON SMA TRACON (SMA)
01:07AM 37.6464 -86.2386 North 271 312 9,200 -1,680 Descending FAA TRACON SMA TRACON (SMA)
01:08AM 37.6983 -86.2339 North 270 311 8,000 -1,620 Descending FAA TRACON SMA TRACON (SMA)
01:08AM 37.7517 -86.2317 North 274 315 7,100 -780 Descending FAA TRACON SMA TRACON (SMA)
01:09AM 37.7978 -86.2294 North 268 308 7,000 -120 Descending FAA TRACON SMA TRACON (SMA)
01:10AM 37.8506 -86.2275 North 273 314 7,000  Level FAA TRACON SMA TRACON (SMA)
01:10AM 37.9019 -86.2242 North 268 308 7,000  Level FAA TRACON SMA TRACON (SMA)
01:11AM 37.9467 -86.2219 North 262 302 7,000 -480 Level FAA TRACON SMA TRACON (SMA)
01:12AM 37.9911 -86.2192 North 228 262 6,400 -780 Descending FAA TRACON SMA TRACON (SMA)
01:12AM 38.0342 -86.2158 North 224 258 6,000 -300 Descending FAA TRACON SMA TRACON (SMA)
01:13AM 38.0728 -86.2133 27° Northeast 222 255 6,000  Level FAA TRACON SMA TRACON (SMA)
01:14AM 38.1111 -86.1886 91° East 248 285 6,000 -120 Level FAA TRACON SMA TRACON (SMA)
01:14AM 38.1100 -86.1244 97° East 270 311 5,900 -720 Descending FAA TRACON SMA TRACON (SMA)
01:15AM 38.1047 -86.0678 98° East 264 304 5,100 -1,260 Descending FAA TRACON SMA TRACON (SMA)
01:16AM 38.0972 -85.9972 98° East 261 300 4,200 -840 Descending FAA TRACON SMA TRACON (SMA)
01:16AM 38.0911 -85.9442 99° East 244 281 4,000 -600 Descending FAA TRACON SMA TRACON (SMA)
01:17AM 38.0842 -85.8889 118° Southeast 230 265 3,500 -720 Descending FAA TRACON SMA TRACON (SMA)
01:18AM 38.0667 -85.8469 122° Southeast 216 249 3,100 -420 Descending FAA TRACON SMA TRACON (SMA)
01:18AM 38.0461 -85.8047 122° Southeast 202 232 3,000 -180 Descending FAA TRACON SMA TRACON (SMA)